Time;durP1;ratioP1;P1;durP2;ratioP2;P2;SDS_P1;SDS_P2;PMS_P1;PMS_P2;Temp;Humidity;BMP_temperature;BMP_pressure;BME280_temperature;BME280_humidity;BME280_pressure;Samples;Min_cycle;Max_cycle;Signal;HPM_P1;HPM_P2
2021/04/10 00:01:34;;;;;;;44.85;16.27;;;179.30;1305.60;;;;;;5094990;28;20476;-77
2021/04/10 00:04:00;;;;;;;41.78;15.05;;;179.30;1305.60;;;;;;5094643;28;20032;-76
2021/04/10 00:06:26;;;;;;;33.17;12.70;;;179.40;1305.60;;;;;;5113088;28;20026;-78
2021/04/10 00:08:51;;;;;;;;;;;179.30;1280.00;;;;;;5113213;28;20031;-78
2021/04/10 00:11:17;;;;;;;30.55;13.27;;;179.30;1305.60;;;;;;5093945;28;19915;-77
2021/04/10 00:13:43;;;;;;;;;;;179.30;1305.60;;;;;;5113309;28;20465;-77
2021/04/10 00:16:09;;;;;;;37.55;13.05;;;179.40;1331.20;;;;;;5094628;28;19931;-77
2021/04/10 00:18:34;;;;;;;;;;;179.30;1305.60;;;;;;5094986;28;20019;-78
2021/04/10 00:21:00;;;;;;;34.85;14.88;;;179.30;1331.20;;;;;;5094655;28;19910;-77
2021/04/10 00:23:25;;;;;;;;;;;179.20;1356.80;;;;;;5113133;28;20091;-77
2021/04/10 00:25:51;;;;;;;25.65;9.30;;;179.20;1331.20;;;;;;5094119;28;19907;-77
2021/04/10 00:28:17;;;;;;;;;;;179.20;1331.20;;;;;;5094690;28;20442;-77
2021/04/10 00:30:42;;;;;;;17.20;8.75;;;179.20;1331.20;;;;;;5128460;27;19986;-77
2021/04/10 00:33:08;;;;;;;;;;;179.20;1331.20;;;;;;5111069;28;20662;-77
2021/04/10 00:35:35;;;;;;;18.15;7.75;;;179.20;1331.20;;;;;;5109606;28;19943;-76
2021/04/10 00:38:00;;;;;;;17.65;8.85;;;179.20;1356.80;;;;;;5112394;28;20016;-77
2021/04/10 00:40:26;;;;;;;19.98;9.10;;;179.20;1356.80;;;;;;5094086;28;20030;-78
2021/04/10 00:42:52;;;;;;;19.85;9.30;;;154.50;1382.40;;;;;;5094280;28;20380;-77
2021/04/10 00:45:18;;;;;;;16.80;8.52;;;154.40;1356.80;;;;;;5094310;28;20020;-78
2021/04/10 00:47:44;;;;;;;;;;;154.30;1382.40;;;;;;5090218;28;20123;-80
2021/04/10 00:50:10;;;;;;;16.10;8.60;;;154.20;1382.40;;;;;;5093910;28;20320;-78
2021/04/10 00:52:37;;;;;;;19.83;8.05;;;154.20;1408.00;;;;;;5112695;28;20117;-77
2021/04/10 00:55:05;;;;;;;17.63;8.30;;;154.20;1382.40;;;;;;5112603;28;20076;-77
2021/04/10 00:57:31;;;;;;;20.45;7.75;;;154.30;1382.40;;;;;;5112807;28;20072;-77
2021/04/10 00:59:57;;;;;;;;;;;154.10;1382.40;;;;;;5112450;28;20055;-77
2021/04/10 01:02:23;;;;;;;16.92;8.65;;;154.10;1382.40;;;;;;5093823;28;20395;-78
2021/04/10 01:04:49;;;;;;;20.25;8.20;;;154.00;1382.40;;;;;;5093311;28;20031;-78
2021/04/10 01:07:15;;;;;;;17.88;8.05;;;153.90;1382.40;;;;;;5112392;28;20422;-77
2021/04/10 01:09:41;;;;;;;;;;;153.80;1408.00;;;;;;5114396;28;20028;-77
2021/04/10 01:12:23;;;;;;;18.33;7.85;;;153.80;1408.00;;;;;;5094474;28;19903;-77
2021/04/10 01:15:05;;;;;;;16.95;7.05;;;153.90;1382.40;;;;;;5096025;28;20507;-79
2021/04/10 01:17:35;;;;;;;18.90;7.07;;;153.90;1382.40;;;;;;5113049;27;20023;-78
2021/04/10 01:20:19;;;;;;;16.17;7.07;;;153.90;1382.40;;;;;;5095187;28;20130;-78
2021/04/10 01:22:45;;;;;;;14.23;7.40;;;153.80;1408.00;;;;;;5093337;28;20035;-78
2021/04/10 01:25:40;;;;;;;23.67;7.63;;;153.90;1408.00;;;;;;5095176;28;20030;-79
2021/04/10 01:28:30;;;;;;;19.75;7.57;;;154.10;1382.40;;;;;;5030576;28;20577;-78
2021/04/10 01:30:58;;;;;;;18.95;8.35;;;153.80;1433.60;;;;;;5030635;28;20029;-78
2021/04/10 01:33:28;;;;;;;17.25;7.60;;;153.80;1433.60;;;;;;5030690;28;20033;-77
2021/04/10 01:35:59;;;;;;;16.05;7.75;;;153.60;1433.60;;;;;;5029136;28;20056;-78
2021/04/10 01:38:28;;;;;;;13.25;7.35;;;128.90;1484.80;;;;;;5030204;28;20036;-78
2021/04/10 01:40:59;;;;;;;13.57;7.53;;;128.90;1459.20;;;;;;5029473;28;20125;-78
2021/04/10 01:43:24;;;;;;;16.23;7.55;;;128.90;1459.20;;;;;;5030301;28;20513;-79
2021/04/10 01:45:52;;;;;;;15.68;7.88;;;128.80;1484.80;;;;;;5029360;28;20120;-78
2021/04/10 01:48:20;;;;;;;18.35;8.05;;;128.90;1484.80;;;;;;5028898;28;20499;-78
2021/04/10 01:50:48;;;;;;;14.95;7.15;;;128.70;1484.80;;;;;;5029299;28;20021;-78
2021/04/10 01:53:14;;;;;;;14.68;7.05;;;128.70;1510.40;;;;;;5030095;28;20046;-78
2021/04/10 01:55:41;;;;;;;16.80;7.53;;;153.80;1433.60;;;;;;5013380;28;20408;-78
2021/04/10 01:58:08;;;;;;;15.00;6.72;;;153.80;1433.60;;;;;;5013931;28;20040;-78
2021/04/10 02:00:36;;;;;;;19.70;8.18;;;128.90;1484.80;;;;;;5030419;28;20510;-78
2021/04/10 02:03:03;;;;;;;17.90;8.77;;;128.90;1484.80;;;;;;5030621;28;20052;-78
2021/04/10 02:05:31;;;;;;;15.52;8.20;;;153.60;1484.80;;;;;;5086359;28;20038;-79
2021/04/10 02:07:58;;;;;;;11.52;7.38;;;128.90;1484.80;;;;;;5094771;28;20056;-78
2021/04/10 02:10:25;;;;;;;16.58;7.32;;;128.80;1510.40;;;;;;5094555;28;20057;-78
2021/04/10 02:12:53;;;;;;;14.43;7.65;;;128.60;1536.00;;;;;;5116085;28;20086;-79
2021/04/10 02:15:21;;;;;;;16.25;7.70;;;128.50;1536.00;;;;;;5095626;28;20027;-78
2021/04/10 02:17:46;;;;;;;16.55;7.57;;;128.50;1536.00;;;;;;5098485;28;20468;-78
2021/04/10 02:20:14;;;;;;;16.63;7.68;;;128.60;1536.00;;;;;;5099456;28;20042;-79
2021/04/10 02:22:52;;;;;;;13.55;7.25;;;128.80;1510.40;;;;;;5116045;28;20038;-79
2021/04/10 02:25:19;;;;;;;15.45;7.97;;;128.80;1510.40;;;;;;5100821;28;20035;-79
2021/04/10 02:27:45;;;;;;;16.35;7.30;;;128.90;1510.40;;;;;;5100576;28;20024;-79
2021/04/10 02:30:13;;;;;;;17.10;8.20;;;128.80;1510.40;;;;;;5101128;28;20130;-78
2021/04/10 02:32:56;;;;;;;16.25;7.85;;;128.50;1561.60;;;;;;5083416;28;20034;-80
2021/04/10 02:35:33;;;;;;;17.60;7.45;;;128.70;1536.00;;;;;;5100417;28;20020;-78
2021/04/10 02:38:00;;;;;;;14.73;7.22;;;128.50;1561.60;;;;;;5100630;28;20024;-79
2021/04/10 02:40:31;;;;;;;14.63;6.90;;;128.50;1561.60;;;;;;5118435;28;20537;-79
2021/04/10 02:42:58;;;;;;;16.30;6.82;;;128.40;1561.60;;;;;;5118771;28;20008;-79
2021/04/10 02:45:26;;;;;;;16.73;7.82;;;128.40;1587.20;;;;;;5100048;28;20020;-79
2021/04/10 02:47:56;;;;;;;14.98;7.50;;;128.20;1587.20;;;;;;5099925;28;20426;-79
2021/04/10 02:50:23;;;;;;;13.95;7.00;;;128.40;1587.20;;;;;;5096305;28;20023;-79
2021/04/10 02:52:52;;;;;;;15.82;6.82;;;128.20;1587.20;;;;;;5117592;28;20048;-79
2021/04/10 02:55:26;;;;;;;14.15;7.10;;;128.00;1638.40;;;;;;5117989;28;20020;-79
2021/04/10 02:57:52;;;;;;;12.85;6.57;;;128.00;1612.80;;;;;;5098006;28;20027;-79
2021/04/10 03:00:20;;;;;;;17.05;7.40;;;103.30;1612.80;;;;;;5117507;28;20109;-78
2021/04/10 03:02:47;;;;;;;15.10;7.05;;;103.30;1612.80;;;;;;5117237;28;20011;-79
2021/04/10 03:05:13;;;;;;;16.25;8.07;;;103.10;1638.40;;;;;;5116843;28;20077;-79
2021/04/10 03:07:52;;;;;;;17.15;7.38;;;103.20;1638.40;;;;;;5098034;28;20271;-78
2021/04/10 03:10:18;;;;;;;17.52;8.10;;;103.20;1638.40;;;;;;5098151;28;20376;-78
2021/04/10 03:12:46;;;;;;;13.40;7.32;;;103.20;1638.40;;;;;;5115352;28;20012;-77
2021/04/10 03:15:15;;;;;;;16.20;7.55;;;103.20;1638.40;;;;;;5099005;28;20047;-78
2021/04/10 03:17:41;;;;;;;14.63;7.47;;;103.20;1638.40;;;;;;5097463;28;20018;-79
2021/04/10 03:20:13;;;;;;;15.52;7.25;;;103.10;1638.40;;;;;;5100090;28;20035;-80
2021/04/10 03:22:47;;;;;;;18.88;7.45;;;103.10;1664.00;;;;;;5097667;28;20035;-78
2021/04/10 03:25:14;;;;;;;14.68;7.18;;;103.00;1664.00;;;;;;5115453;28;20027;-78
2021/04/10 03:27:41;;;;;;;14.63;7.20;;;103.00;1664.00;;;;;;5115140;28;20736;-78
2021/04/10 03:30:09;;;;;;;15.98;7.72;;;103.10;1638.40;;;;;;5097271;28;20103;-79
2021/04/10 03:32:36;;;;;;;15.35;6.78;;;103.10;1638.40;;;;;;5115114;28;20393;-78
2021/04/10 03:35:02;;;;;;;18.23;7.63;;;103.20;1612.80;;;;;;5097278;28;20019;-78
2021/04/10 03:37:32;;;;;;;15.57;7.35;;;103.20;1638.40;;;;;;5097409;28;20019;-78
2021/04/10 03:39:58;;;;;;;14.95;7.70;;;103.30;1612.80;;;;;;5096704;28;20118;-79
2021/04/10 03:42:37;;;;;;;16.13;7.47;;;103.30;1612.80;;;;;;5122414;27;20019;-78
2021/04/10 03:45:09;;;;;;;17.67;8.35;;;103.30;1638.40;;;;;;5114907;28;20031;-78
2021/04/10 03:47:35;;;;;;;14.75;6.95;;;103.20;1638.40;;;;;;5114698;28;20015;-78
2021/04/10 03:50:01;;;;;;;19.45;7.32;;;103.30;1638.40;;;;;;5114853;28;20027;-78
2021/04/10 03:52:27;;;;;;;;;;;103.10;1638.40;;;;;;5098933;28;20053;-79
2021/04/10 03:54:53;;;;;;;16.15;7.13;;;103.30;1638.40;;;;;;5127632;27;19903;-78
2021/04/10 03:57:18;;;;;;;;;;;103.30;1612.80;;;;;;5114743;28;20055;-78
2021/04/10 03:59:44;;;;;;;16.27;7.55;;;103.30;1638.40;;;;;;5096317;28;19918;-78
2021/04/10 04:02:10;;;;;;;13.85;7.40;;;103.20;1638.40;;;;;;5096237;28;20032;-78
2021/04/10 04:04:36;;;;;;;18.27;7.65;;;103.30;1638.40;;;;;;5096671;28;20028;-78
2021/04/10 04:07:02;;;;;;;17.05;7.97;;;128.00;1638.40;;;;;;5095358;28;20353;-78
2021/04/10 04:09:28;;;;;;;16.17;7.70;;;128.20;1638.40;;;;;;5096536;28;20016;-78
2021/04/10 04:11:54;;;;;;;15.88;7.18;;;128.40;1587.20;;;;;;5096317;28;20080;-78
2021/04/10 04:14:20;;;;;;;;;;;128.50;1587.20;;;;;;5115276;28;20035;-78
2021/04/10 04:16:45;;;;;;;15.48;6.97;;;128.20;1612.80;;;;;;5111894;28;20010;-78
2021/04/10 04:19:11;;;;;;;;;;;128.30;1612.80;;;;;;5096875;28;20030;-79
2021/04/10 04:21:37;;;;;;;18.02;8.00;;;128.20;1638.40;;;;;;5095729;28;20384;-78
2021/04/10 04:24:03;;;;;;;;;;;128.10;1638.40;;;;;;5096475;28;20012;-78
2021/04/10 04:26:29;;;;;;;13.80;7.35;;;128.00;1664.00;;;;;;5096485;28;20276;-78
2021/04/10 04:28:54;;;;;;;13.07;7.13;;;103.30;1638.40;;;;;;5096366;28;20012;-78
2021/04/10 04:31:20;;;;;;;;;;;128.00;1664.00;;;;;;5096747;28;20031;-79
2021/04/10 04:33:46;;;;;;;19.17;7.47;;;103.30;1638.40;;;;;;5094321;28;20315;-78
2021/04/10 04:36:13;;;;;;;19.02;9.82;;;103.20;1638.40;;;;;;5095737;28;20480;-78
2021/04/10 04:38:38;;;;;;;;;;;103.30;1638.40;;;;;;5094836;28;20020;-79
2021/04/10 04:41:04;;;;;;;31.77;11.88;;;103.20;1638.40;;;;;;5095500;28;19914;-77
2021/04/10 04:43:29;;;;;;;;;;;128.10;1664.00;;;;;;5114206;28;20027;-78
2021/04/10 04:45:55;;;;;;;18.50;8.70;;;128.20;1638.40;;;;;;5095831;28;19915;-78
2021/04/10 04:48:21;;;;;;;;;;;128.10;1664.00;;;;;;5096773;28;20034;-79
2021/04/10 04:50:47;;;;;;;19.60;8.75;;;128.10;1638.40;;;;;;5096495;28;20658;-78
2021/04/10 04:53:12;;;;;;;;;;;128.50;1612.80;;;;;;5114458;28;20051;-78
2021/04/10 04:55:38;;;;;;;14.70;8.07;;;128.80;1561.60;;;;;;5131070;27;19904;-78
2021/04/10 04:58:03;;;;;;;;;;;128.80;1561.60;;;;;;5096331;28;20024;-78
2021/04/10 05:00:29;;;;;;;17.85;8.27;;;128.70;1587.20;;;;;;5095242;28;19923;-78
2021/04/10 05:02:55;;;;;;;16.70;8.77;;;128.50;1612.80;;;;;;5096159;28;20016;-79
2021/04/10 05:05:21;;;;;;;16.20;8.00;;;128.40;1612.80;;;;;;5095395;28;20366;-78
2021/04/10 05:07:46;;;;;;;;;;;128.40;1638.40;;;;;;5096400;28;20363;-78
2021/04/10 05:10:15;;;;;;;22.27;7.88;;;128.40;1664.00;;;;;;5095776;28;19904;-79
2021/04/10 05:12:40;;;;;;;17.55;8.30;;;128.40;1664.00;;;;;;5096617;28;20473;-79
2021/04/10 05:15:07;;;;;;;19.55;9.73;;;128.40;1638.40;;;;;;5096094;28;20027;-79
2021/04/10 05:17:32;;;;;;;26.02;11.95;;;128.50;1638.40;;;;;;5098125;28;20020;-80
2021/04/10 05:19:58;;;;;;;27.85;14.23;;;128.60;1664.00;;;;;;5099052;28;20042;-79
2021/04/10 05:22:24;;;;;;;32.00;14.98;;;128.60;1664.00;;;;;;5098076;28;20176;-79
2021/04/10 05:24:49;;;;;;;;;;;128.70;1664.00;;;;;;5096933;28;20508;-79
2021/04/10 05:27:15;;;;;;;31.38;13.63;;;128.70;1664.00;;;;;;5095708;28;19907;-79
2021/04/10 05:29:41;;;;;;;;;;;128.90;1664.00;;;;;;5096150;28;20066;-78
2021/04/10 05:32:06;;;;;;;24.25;8.85;;;153.70;1664.00;;;;;;5096075;28;19904;-78
2021/04/10 05:34:32;;;;;;;;;;;153.70;1638.40;;;;;;5114638;28;20464;-79
2021/04/10 05:36:58;;;;;;;16.27;9.25;;;153.90;1612.80;;;;;;5094401;28;19953;-77
2021/04/10 05:39:23;;;;;;;;;;;154.00;1612.80;;;;;;5098469;28;20440;-78
2021/04/10 05:41:49;;;;;;;18.77;8.75;;;154.10;1638.40;;;;;;5109135;28;20420;-78
2021/04/10 05:44:15;;;;;;;18.95;9.18;;;154.20;1612.80;;;;;;5112096;28;20073;-79
2021/04/10 05:46:41;;;;;;;;;;;154.30;1612.80;;;;;;5097507;28;20026;-78
2021/04/10 05:49:06;;;;;;;45.95;21.33;;;154.50;1587.20;;;;;;5115877;28;19911;-77
2021/04/10 05:51:32;;;;;;;;;;;179.30;1587.20;;;;;;5116331;28;20054;-78
2021/04/10 05:53:58;;;;;;;24.27;10.90;;;179.50;1587.20;;;;;;5096929;28;19911;-79
2021/04/10 05:56:23;;;;;;;32.97;11.85;;;179.50;1587.20;;;;;;5097699;28;20027;-80
2021/04/10 05:58:49;;;;;;;;;;;179.60;1561.60;;;;;;5098070;28;20035;-78
2021/04/10 06:01:15;;;;;;;25.30;13.02;;;179.70;1561.60;;;;;;5116479;28;19908;-77
2021/04/10 06:03:41;;;;;;;;;;;179.70;1561.60;;;;;;5116477;28;20152;-80
2021/04/10 06:06:08;;;;;;;20.10;10.30;;;179.90;1561.60;;;;;;5097707;28;20262;-77
2021/04/10 06:08:34;;;;;;;21.83;11.05;;;180.10;1536.00;;;;;;5097263;28;20031;-78
2021/04/10 06:11:00;;;;;;;21.45;10.70;;;204.90;1510.40;;;;;;5096439;28;20031;-78
2021/04/10 06:13:25;;;;;;;;;;;205.10;1536.00;;;;;;5097583;28;20244;-77
2021/04/10 06:15:51;;;;;;;21.35;11.02;;;205.20;1561.60;;;;;;5112717;28;20391;-76
2021/04/10 06:18:17;;;;;;;;;;;205.20;1536.00;;;;;;5115528;28;20023;-77
2021/04/10 06:20:42;;;;;;;21.70;9.13;;;205.40;1510.40;;;;;;5096597;28;19915;-77
2021/04/10 06:23:08;;;;;;;;;;;205.50;1484.80;;;;;;5097400;28;20039;-78
2021/04/10 06:25:34;;;;;;;20.10;10.25;;;205.60;1510.40;;;;;;5097501;28;19904;-79
2021/04/10 06:28:03;;;;;;;;;;;230.40;1484.80;;;;;;5098382;28;20063;-79
2021/04/10 06:30:29;;;;;;;24.90;10.45;;;230.40;1484.80;;;;;;5115756;28;19907;-78
2021/04/10 06:32:54;;;;;;;;;;;230.70;1459.20;;;;;;5098148;28;20031;-81
2021/04/10 06:35:20;;;;;;;17.80;8.98;;;230.80;1408.00;;;;;;5131544;27;19911;-80
2021/04/10 06:37:46;;;;;;;;;;;230.80;1408.00;;;;;;5098557;28;20030;-83
2021/04/10 06:40:12;;;;;;;21.63;10.43;;;231.00;1382.40;;;;;;5098116;28;19922;-83
2021/04/10 06:42:37;;;;;;;;;;;231.10;1356.80;;;;;;5098341;28;20416;-83
2021/04/10 06:45:05;;;;;;;23.17;10.73;;;231.20;1408.00;;;;;;5098086;28;19915;-82
2021/04/10 06:47:33;;;;;;;19.58;10.05;;;231.30;1356.80;;;;;;5097569;28;20030;-82
2021/04/10 06:50:00;;;;;;;23.45;10.32;;;256.20;1305.60;;;;;;5098114;28;20024;-81
2021/04/10 06:52:28;;;;;;;16.40;7.50;;;256.30;1331.20;;;;;;5097369;28;20086;-82
2021/04/10 06:55:02;;;;;;;21.83;8.52;;;256.40;1280.00;;;;;;5097476;28;20024;-79
2021/04/10 06:57:35;;;;;;;22.92;8.55;;;256.40;1305.60;;;;;;5096318;28;20384;-78
2021/04/10 07:00:06;;;;;;;22.73;10.52;;;256.70;1305.60;;;;;;5096264;28;20047;-78
2021/04/10 07:02:34;;;;;;;17.85;9.07;;;256.90;1280.00;;;;;;5097310;28;20020;-78
2021/04/10 07:05:00;;;;;;;17.30;8.30;;;281.70;1228.80;;;;;;5114878;28;20024;-77
2021/04/10 07:07:27;;;;;;;18.50;8.77;;;281.90;1203.20;;;;;;5114837;28;20023;-77
2021/04/10 07:09:54;;;;;;;19.73;8.13;;;282.00;1203.20;;;;;;5114862;28;20038;-79
2021/04/10 07:12:20;;;;;;;13.88;6.85;;;282.20;1203.20;;;;;;5096981;28;20101;-78
2021/04/10 07:14:46;;;;;;;15.35;7.97;;;282.40;1152.00;;;;;;5114681;28;20481;-79
2021/04/10 07:17:13;;;;;;;15.50;7.57;;;282.50;1177.60;;;;;;5096888;28;20108;-80
2021/04/10 07:19:39;;;;;;;16.85;6.80;;;307.30;1203.20;;;;;;5096861;28;20381;-81
2021/04/10 07:22:15;;;;;;;9.43;5.65;;;307.40;1177.60;;;;;;5096944;28;20036;-83
2021/04/10 07:24:48;;;;;;;9.60;6.18;;;307.60;1126.40;;;;;;5096729;28;20385;-80
2021/04/10 07:27:22;;;;;;;10.10;5.50;;;307.80;1126.40;;;;;;5114730;28;20059;-81
2021/04/10 07:29:50;;;;;;;13.43;6.20;;;307.80;1075.20;;;;;;5114934;28;20481;-81
2021/04/10 07:32:37;;;;;;;8.38;5.45;;;308.00;1075.20;;;;;;5096619;28;20391;-79
2021/04/10 07:35:11;;;;;;;9.18;4.43;;;308.10;1075.20;;;;;;5096144;28;20118;-78
2021/04/10 07:37:50;;;;;;;11.15;6.32;;;308.10;1075.20;;;;;;5096466;28;20064;-77
2021/04/10 07:40:22;;;;;;;12.02;6.82;;;332.90;1100.80;;;;;;5096545;28;20058;-78
2021/04/10 07:42:48;;;;;;;13.30;5.43;;;333.00;1075.20;;;;;;5096379;28;20020;-80
2021/04/10 07:45:29;;;;;;;13.13;6.03;;;333.00;1100.80;;;;;;5096071;28;20028;-78
2021/04/10 07:48:13;;;;;;;13.88;6.30;;;333.20;1049.60;;;;;;5114455;28;20020;-79
2021/04/10 07:50:41;;;;;;;12.07;6.50;;;333.30;1126.40;;;;;;5095933;28;20176;-77
2021/04/10 07:53:25;;;;;;;12.25;6.40;;;333.40;1075.20;;;;;;5096142;28;20054;-79
2021/04/10 07:55:53;;;;;;;12.15;6.40;;;333.50;1075.20;;;;;;5076686;28;20022;-79
2021/04/10 07:58:31;;;;;;;21.80;13.35;;;333.60;1049.60;;;;;;5075540;28;20029;-80
2021/04/10 08:01:08;;;;;;;16.77;7.38;;;333.60;1126.40;;;;;;5093672;28;20490;-78
2021/04/10 08:03:39;;;;;;;12.45;6.78;;;333.70;1152.00;;;;;;5075414;28;20064;-79
2021/04/10 08:06:08;;;;;;;15.68;7.63;;;358.40;1075.20;;;;;;5093250;28;20023;-78
2021/04/10 08:08:57;;;;;;;15.85;8.30;;;358.60;1126.40;;;;;;5092630;28;20032;-78
2021/04/10 08:11:33;;;;;;;12.40;6.68;;;358.60;1075.20;;;;;;5075189;28;20024;-77
2021/04/10 08:14:01;;;;;;;11.88;6.90;;;358.80;1049.60;;;;;;5109285;28;20020;-78
2021/04/10 08:16:27;;;;;;;10.95;5.88;;;358.80;1024.00;;;;;;5093514;28;20106;-78
2021/04/10 08:18:59;;;;;;;14.98;6.30;;;358.90;1024.00;;;;;;5075293;28;20049;-80
2021/04/10 08:21:31;;;;;;;12.68;6.68;;;359.00;1024.00;;;;;;5075463;28;20393;-78
2021/04/10 08:24:01;;;;;;;9.65;5.40;;;359.10;1024.00;;;;;;5093251;28;20031;-78
2021/04/10 08:26:27;;;;;;;23.42;6.75;;;359.20;998.40;;;;;;5093633;28;20036;-77
2021/04/10 08:28:54;;;;;;;10.85;5.88;;;359.20;972.80;;;;;;5092736;28;20492;-77
2021/04/10 08:31:20;;;;;;;14.20;5.70;;;384.00;1075.20;;;;;;5093144;28;20035;-78
2021/04/10 08:33:46;;;;;;;8.82;4.95;;;384.00;998.40;;;;;;5074867;28;20067;-77
2021/04/10 08:36:12;;;;;;;8.25;4.72;;;384.00;947.20;;;;;;5074876;28;20056;-79
2021/04/10 08:38:39;;;;;;;6.30;3.58;;;384.00;947.20;;;;;;5074971;28;20070;-78
2021/04/10 08:41:07;;;;;;;11.05;5.43;;;384.00;870.40;;;;;;5074612;28;20089;-78
2021/04/10 08:43:36;;;;;;;8.07;4.38;;;384.10;947.20;;;;;;5092685;28;20020;-76
2021/04/10 08:46:03;;;;;;;12.48;5.63;;;384.30;947.20;;;;;;5074356;28;20119;-77
2021/04/10 08:48:29;;;;;;;8.18;4.60;;;384.40;1024.00;;;;;;5092865;28;20027;-77
2021/04/10 08:50:59;;;;;;;7.22;3.90;;;384.40;972.80;;;;;;5073873;28;20082;-77
2021/04/10 08:53:30;;;;;;;8.55;3.90;;;384.60;896.00;;;;;;5074266;28;20044;-76
2021/04/10 08:55:56;;;;;;;10.70;4.03;;;384.70;972.80;;;;;;5112424;28;20031;-76
2021/04/10 08:58:32;;;;;;;8.88;3.95;;;384.80;844.80;;;;;;5094511;28;20158;-77
2021/04/10 09:01:01;;;;;;;9.98;3.95;;;409.60;972.80;;;;;;5095086;28;20151;-78
2021/04/10 09:03:45;;;;;;;10.30;3.60;;;409.60;921.60;;;;;;5095005;28;20040;-78
2021/04/10 09:06:38;;;;;;;6.57;3.10;;;409.70;947.20;;;;;;5094876;28;20027;-77
2021/04/10 09:09:15;;;;;;;6.22;3.55;;;409.70;896.00;;;;;;5083140;28;20460;-77
2021/04/10 09:11:45;;;;;;;6.88;2.40;;;409.70;870.40;;;;;;5094949;28;20139;-80
2021/04/10 09:14:13;;;;;;;7.97;3.35;;;410.00;819.20;;;;;;5112374;28;20023;-79
2021/04/10 09:16:52;;;;;;;8.85;3.15;;;410.00;819.20;;;;;;5095065;28;20028;-76
2021/04/10 09:19:26;;;;;;;6.65;2.55;;;410.10;844.80;;;;;;5112248;28;20020;-76
2021/04/10 09:22:00;;;;;;;10.63;3.10;;;410.10;793.60;;;;;;5093939;28;20168;-77
2021/04/10 09:24:28;;;;;;;7.78;3.58;;;410.10;870.40;;;;;;5094606;28;20020;-78
2021/04/10 09:27:01;;;;;;;6.68;3.10;;;410.30;844.80;;;;;;5112409;28;20111;-78
2021/04/10 09:29:41;;;;;;;7.53;3.33;;;410.40;819.20;;;;;;5112695;28;20515;-78
2021/04/10 09:32:08;;;;;;;8.93;3.40;;;410.50;870.40;;;;;;5093868;28;20093;-77
2021/04/10 09:34:57;;;;;;;7.97;3.42;;;435.30;793.60;;;;;;5112036;28;20087;-77
2021/04/10 09:37:22;;;;;;;7.78;3.53;;;435.40;793.60;;;;;;5093397;28;20027;-79
2021/04/10 09:40:04;;;;;;;9.00;3.85;;;435.50;793.60;;;;;;5093620;28;20031;-78
2021/04/10 09:42:37;;;;;;;5.85;3.03;;;435.70;819.20;;;;;;5091345;28;20509;-78
2021/04/10 09:45:10;;;;;;;6.40;2.75;;;435.80;742.40;;;;;;5112124;28;20492;-77
2021/04/10 09:47:55;;;;;;;7.07;3.00;;;436.00;742.40;;;;;;5093696;28;20038;-76
2021/04/10 09:50:42;;;;;;;8.00;2.90;;;436.10;742.40;;;;;;5122388;28;20558;-78
2021/04/10 09:53:24;;;;;;;8.27;4.00;;;435.80;819.20;;;;;;5091118;28;20046;-78
2021/04/10 09:55:57;;;;;;;7.28;2.95;;;436.10;768.00;;;;;;5094399;28;20066;-79
2021/04/10 09:58:23;;;;;;;8.40;2.75;;;460.80;793.60;;;;;;5111981;28;20020;-78
2021/04/10 10:00:58;;;;;;;9.27;3.97;;;460.80;819.20;;;;;;5093979;28;20404;-79
2021/04/10 10:03:25;;;;;;;6.90;2.83;;;461.00;819.20;;;;;;5093643;28;20070;-79
2021/04/10 10:05:54;;;;;;;6.35;3.38;;;461.10;819.20;;;;;;5093798;28;20486;-79
2021/04/10 10:08:23;;;;;;;6.35;3.17;;;461.40;742.40;;;;;;5112288;28;20020;-78
2021/04/10 10:10:57;;;;;;;7.88;2.58;;;486.40;742.40;;;;;;5092422;28;20146;-77
2021/04/10 10:13:33;;;;;;;15.27;3.70;;;486.40;819.20;;;;;;5090940;28;20036;-78
2021/04/10 10:15:59;;;;;;;;;;;486.50;793.60;;;;;;5106599;28;20015;-77
2021/04/10 10:18:25;;;;;;;8.27;3.72;;;486.80;742.40;;;;;;5092776;28;19903;-77
2021/04/10 10:21:01;;;;;;;7.38;3.22;;;486.80;691.20;;;;;;5092668;28;20584;-77
2021/04/10 10:23:32;;;;;;;;;;;486.90;716.80;;;;;;5091902;28;20504;-76
2021/04/10 10:26:06;;;;;;;7.22;2.90;;;486.70;819.20;;;;;;5090729;28;20334;-77
2021/04/10 10:28:33;;;;;;;10.95;3.63;;;487.00;716.80;;;;;;5092873;28;20027;-77
2021/04/10 10:31:07;;;;;;;16.30;3.53;;;487.10;691.20;;;;;;5089328;28;20469;-77
2021/04/10 10:33:33;;;;;;;6.50;3.45;;;486.90;691.20;;;;;;5114667;28;20035;-77
2021/04/10 10:36:00;;;;;;;7.20;3.38;;;487.10;716.80;;;;;;5097556;28;20065;-77
2021/04/10 10:38:31;;;;;;;6.43;3.05;;;512.00;716.80;;;;;;5115949;28;20386;-77
2021/04/10 10:40:57;;;;;;;10.13;3.70;;;512.20;665.60;;;;;;5096986;28;20043;-77
2021/04/10 10:43:25;;;;;;;13.10;3.90;;;487.30;742.40;;;;;;5115619;28;20372;-77
2021/04/10 10:45:54;;;;;;;7.57;3.08;;;512.00;742.40;;;;;;5097175;28;20515;-78
2021/04/10 10:48:23;;;;;;;9.10;3.40;;;486.80;716.80;;;;;;5114919;28;20446;-77
2021/04/10 10:50:51;;;;;;;8.23;3.85;;;461.40;793.60;;;;;;5097135;28;20034;-78
2021/04/10 10:53:23;;;;;;;6.70;3.75;;;461.20;819.20;;;;;;5096869;28;20044;-77
2021/04/10 10:56:14;;;;;;;9.55;3.90;;;486.40;819.20;;;;;;5096560;28;20036;-77
2021/04/10 10:58:45;;;;;;;15.45;4.95;;;487.00;742.40;;;;;;5096937;28;20055;-75
2021/04/10 11:01:18;;;;;;;7.28;3.00;;;487.20;768.00;;;;;;5114818;28;20078;-76
2021/04/10 11:03:57;;;;;;;10.68;3.67;;;512.10;665.60;;;;;;5115274;28;20373;-79
2021/04/10 11:06:26;;;;;;;10.48;4.47;;;512.50;691.20;;;;;;5096592;28;20028;-77
2021/04/10 11:08:52;;;;;;;6.43;3.55;;;512.70;665.60;;;;;;5096725;28;20022;-76
2021/04/10 11:11:23;;;;;;;7.22;3.03;;;512.50;665.60;;;;;;5115215;28;20473;-76
2021/04/10 11:13:49;;;;;;;5.82;2.90;;;537.70;691.20;;;;;;5096790;28;20035;-79
2021/04/10 11:16:16;;;;;;;8.00;3.30;;;537.70;691.20;;;;;;5114888;28;20020;-78
2021/04/10 11:18:43;;;;;;;9.82;3.17;;;537.60;716.80;;;;;;5114699;28;20020;-77
2021/04/10 11:21:26;;;;;;;6.35;3.15;;;537.90;691.20;;;;;;5114721;28;20043;-79
2021/04/10 11:24:00;;;;;;;8.90;3.60;;;512.60;691.20;;;;;;5096358;28;20137;-78
2021/04/10 11:26:55;;;;;;;9.02;3.42;;;537.70;691.20;;;;;;5096580;28;20028;-78
2021/04/10 11:29:28;;;;;;;7.40;3.47;;;512.90;691.20;;;;;;5034887;28;20037;-79
2021/04/10 11:32:22;;;;;;;9.35;4.22;;;512.20;691.20;;;;;;5051513;28;20514;-77
2021/04/10 11:34:48;;;;;;;9.25;3.38;;;512.90;691.20;;;;;;5051946;28;20103;-78
2021/04/10 11:37:16;;;;;;;5.60;2.50;;;537.80;691.20;;;;;;5051685;28;20495;-77
2021/04/10 11:39:49;;;;;;;8.73;3.08;;;538.10;691.20;;;;;;5051666;28;20510;-77
2021/04/10 11:42:25;;;;;;;12.10;4.20;;;538.30;691.20;;;;;;5051548;28;20025;-77
2021/04/10 11:44:52;;;;;;;8.85;3.83;;;537.90;716.80;;;;;;5051476;28;20029;-77
2021/04/10 11:47:20;;;;;;;4.88;2.65;;;512.90;691.20;;;;;;5051245;28;20391;-79
2021/04/10 11:49:46;;;;;;;6.80;2.72;;;512.80;665.60;;;;;;5051442;28;20029;-78
2021/04/10 11:52:12;;;;;;;5.90;3.40;;;512.80;691.20;;;;;;5051163;28;20060;-77
2021/04/10 11:54:38;;;;;;;7.10;2.88;;;512.80;665.60;;;;;;5045555;28;20040;-78
2021/04/10 11:57:03;;;;;;;9.35;3.17;;;537.60;691.20;;;;;;5051420;28;20017;-79
2021/04/10 11:59:34;;;;;;;8.13;3.25;;;537.80;691.20;;;;;;5051403;28;20618;-78
2021/04/10 12:02:01;;;;;;;6.88;3.17;;;537.80;691.20;;;;;;5051519;28;20103;-77
2021/04/10 12:04:34;;;;;;;5.40;2.58;;;537.80;691.20;;;;;;5042635;28;20029;-77
2021/04/10 12:07:13;;;;;;;10.23;3.03;;;537.60;716.80;;;;;;5083433;28;20027;-77
2021/04/10 12:09:41;;;;;;;10.55;3.65;;;512.50;691.20;;;;;;5076365;28;20028;-79
2021/04/10 12:12:09;;;;;;;6.68;2.80;;;512.30;691.20;;;;;;5113160;28;20072;-77
2021/04/10 12:14:38;;;;;;;7.30;2.83;;;487.00;716.80;;;;;;5094648;28;20031;-76
2021/04/10 12:17:04;;;;;;;9.05;3.13;;;486.80;742.40;;;;;;5094772;28;20091;-78
2021/04/10 12:19:30;;;;;;;7.32;3.05;;;486.80;716.80;;;;;;5113244;28;20533;-76
2021/04/10 12:21:56;;;;;;;8.00;2.85;;;487.20;793.60;;;;;;5112733;28;20031;-76
2021/04/10 12:24:21;;;;;;;14.02;2.60;;;512.60;691.20;;;;;;5094533;28;20031;-76
2021/04/10 12:26:47;;;;;;;6.07;2.95;;;512.90;691.20;;;;;;5094310;28;20767;-77
2021/04/10 12:29:14;;;;;;;7.07;3.03;;;537.70;691.20;;;;;;5094771;28;20031;-78
2021/04/10 12:31:40;;;;;;;5.57;2.42;;;512.80;691.20;;;;;;5095078;28;20020;-78
2021/04/10 12:34:06;;;;;;;14.18;3.47;;;537.90;691.20;;;;;;5094582;28;20046;-78